Time;durP1;ratioP1;P1;durP2;ratioP2;P2;SDS_P1;SDS_P2;PMS_P1;PMS_P2;Temp;Humidity;BMP_temperature;BMP_pressure;BME280_temperature;BME280_humidity;BME280_pressure;Samples;Min_cycle;Max_cycle;Signal;HPM_P1;HPM_P2
2023/02/22 00:00:52;;;;;;;117.85;78.18;;;10.10;99.40;;;;;;6277090;22;20010;-66
2023/02/22 00:03:24;;;;;;;120.07;78.80;;;10.00;99.40;;;;;;6277233;22;20011;-67
2023/02/22 00:06:03;;;;;;;124.95;78.90;;;10.00;99.40;;;;;;6277237;22;20423;-67
2023/02/22 00:08:36;;;;;;;117.93;77.13;;;10.00;99.40;;;;;;6277156;22;20007;-67
2023/02/22 00:11:07;;;;;;;;;;;10.00;99.40;;;;;;6278308;22;20004;-67
2023/02/22 00:13:33;;;;;;;117.22;77.00;;;10.00;99.40;;;;;;6277781;22;19903;-67
2023/02/22 00:15:59;;;;;;;113.55;77.38;;;10.10;99.60;;;;;;6277290;22;20000;-67
2023/02/22 00:18:27;;;;;;;118.68;79.03;;;10.00;99.40;;;;;;6277030;22;20426;-66
2023/02/22 00:21:00;;;;;;;120.57;79.70;;;10.00;99.40;;;;;;6277592;22;20325;-67
2023/02/22 00:23:28;;;;;;;123.85;78.32;;;10.00;99.40;;;;;;6277420;22;20069;-67
2023/02/22 00:25:55;;;;;;;123.77;81.90;;;10.00;99.50;;;;;;6277088;22;19996;-67
2023/02/22 00:28:24;;;;;;;121.40;80.73;;;10.00;99.50;;;;;;6277211;22;20434;-67
2023/02/22 00:30:51;;;;;;;122.90;80.70;;;10.00;99.50;;;;;;6250272;22;20004;-67
2023/02/22 00:33:17;;;;;;;119.40;79.93;;;10.00;99.40;;;;;;6277360;22;20422;-67
2023/02/22 00:35:47;;;;;;;117.47;79.22;;;10.00;99.50;;;;;;6277845;22;20074;-66
2023/02/22 00:38:15;;;;;;;121.50;80.28;;;9.90;99.50;;;;;;6277292;22;20004;-67
2023/02/22 00:40:41;;;;;;;119.87;79.83;;;10.00;99.50;;;;;;6277401;22;20418;-66
2023/02/22 00:43:07;;;;;;;115.40;79.57;;;9.90;99.50;;;;;;6277332;22;20015;-66
2023/02/22 00:45:35;;;;;;;117.10;78.70;;;9.90;99.50;;;;;;6277452;22;20460;-67
2023/02/22 00:48:04;;;;;;;121.77;78.00;;;9.90;99.60;;;;;;6276864;22;20004;-66
2023/02/22 00:50:31;;;;;;;117.80;80.70;;;9.90;99.60;;;;;;6278014;22;20387;-67
2023/02/22 00:52:59;;;;;;;119.70;78.33;;;9.90;99.60;;;;;;6277541;22;20434;-67
2023/02/22 00:55:30;;;;;;;115.83;76.33;;;9.90;99.60;;;;;;6277343;22;20057;-67
2023/02/22 00:57:57;;;;;;;117.80;76.13;;;9.90;99.60;;;;;;6277608;22;20438;-67
2023/02/22 01:00:29;;;;;;;123.77;78.73;;;9.90;99.70;;;;;;6277727;22;19999;-66
2023/02/22 01:02:55;;;;;;;120.40;79.40;;;9.90;99.60;;;;;;6277164;22;20012;-67
2023/02/22 01:05:28;;;;;;;118.67;78.47;;;9.90;99.60;;;;;;6277122;22;20035;-67
2023/02/22 01:07:55;;;;;;;111.93;74.65;;;10.00;99.60;;;;;;6277537;22;20330;-66
2023/02/22 01:10:23;;;;;;;115.63;76.43;;;9.90;99.60;;;;;;6277157;22;20034;-67
2023/02/22 01:12:50;;;;;;;114.77;74.47;;;9.90;99.60;;;;;;6277005;22;20082;-67
2023/02/22 01:15:21;;;;;;;120.53;78.20;;;9.90;99.60;;;;;;6277380;22;20034;-67
2023/02/22 01:17:50;;;;;;;121.33;79.23;;;9.90;99.60;;;;;;6277064;22;20000;-67
2023/02/22 01:20:16;;;;;;;117.03;77.50;;;9.90;99.60;;;;;;6277159;22;20007;-66
2023/02/22 01:22:46;;;;;;;116.07;77.72;;;9.90;99.60;;;;;;6276900;22;20016;-66
2023/02/22 01:25:16;;;;;;;121.33;78.40;;;9.90;99.70;;;;;;6277168;22;19996;-67
2023/02/22 01:27:42;;;;;;;123.13;78.57;;;9.90;99.70;;;;;;6277153;22;20018;-67
2023/02/22 01:30:11;;;;;;;123.27;80.83;;;9.80;99.70;;;;;;6277286;22;20000;-66
2023/02/22 01:32:39;;;;;;;119.80;77.67;;;9.90;99.70;;;;;;6277128;22;20415;-66
2023/02/22 01:35:08;;;;;;;111.83;74.63;;;9.90;99.70;;;;;;6276725;22;20006;-67
2023/02/22 01:37:35;;;;;;;113.50;74.45;;;9.80;99.70;;;;;;6277115;22;19996;-67
2023/02/22 01:40:01;;;;;;;113.83;77.67;;;9.80;99.80;;;;;;6276939;22;20418;-67
2023/02/22 01:42:28;;;;;;;120.97;80.10;;;9.80;99.80;;;;;;6276676;22;20004;-67
2023/02/22 01:45:37;;;;;;;114.77;77.33;;;9.80;99.80;;;;;;6277137;22;19996;-67
2023/02/22 01:48:15;;;;;;;115.20;75.17;;;9.90;99.70;;;;;;6276834;22;20023;-67
2023/02/22 01:50:54;;;;;;;115.00;75.27;;;9.80;99.50;;;;;;6276996;22;20004;-66
2023/02/22 01:53:24;;;;;;;118.47;77.10;;;9.80;99.60;;;;;;6276959;22;20419;-67
2023/02/22 01:55:51;;;;;;;117.55;77.75;;;9.80;99.60;;;;;;6276810;22;20070;-67
2023/02/22 01:58:19;;;;;;;114.27;74.23;;;9.80;99.70;;;;;;6274961;22;20057;-67
2023/02/22 02:00:45;;;;;;;123.50;78.03;;;9.80;99.70;;;;;;6273031;22;20627;-66
2023/02/22 02:03:16;;;;;;;124.73;79.87;;;9.80;99.70;;;;;;6273347;22;20015;-66
2023/02/22 02:05:43;;;;;;;116.43;76.77;;;9.80;99.70;;;;;;6275786;22;19996;-67
2023/02/22 02:08:50;;;;;;;114.70;74.13;;;9.90;99.80;;;;;;6276579;22;20422;-67
2023/02/22 02:11:19;;;;;;;112.57;76.80;;;9.80;99.70;;;;;;6233227;22;20004;-67
2023/02/22 02:13:48;;;;;;;112.00;75.38;;;9.90;99.60;;;;;;6276370;22;20018;-67
2023/02/22 02:16:14;;;;;;;114.63;76.83;;;9.90;99.50;;;;;;6276216;22;20480;-67
2023/02/22 02:18:41;;;;;;;114.93;75.67;;;9.80;99.50;;;;;;6276270;22;20000;-67
2023/02/22 02:21:40;;;;;;;115.60;77.70;;;9.80;99.60;;;;;;6275570;22;20007;-67
2023/02/22 02:24:31;;;;;;;117.30;76.23;;;9.80;99.60;;;;;;6276415;22;20018;-67
2023/02/22 02:27:17;;;;;;;117.93;75.40;;;9.80;99.40;;;;;;6276119;22;20369;-67
2023/02/22 02:29:57;;;;;;;115.60;73.82;;;9.80;99.30;;;;;;6276226;22;20325;-67
2023/02/22 02:32:26;;;;;;;119.50;73.63;;;9.80;99.30;;;;;;6276427;22;20000;-67
2023/02/22 02:35:05;;;;;;;107.57;73.87;;;9.70;99.30;;;;;;6275929;22;19996;-66
2023/02/22 02:37:41;;;;;;;113.72;72.25;;;9.70;99.40;;;;;;6275988;22;20422;-66
2023/02/22 02:40:35;;;;;;;107.13;72.00;;;9.70;99.50;;;;;;6276561;22;20007;-67
2023/02/22 02:43:09;;;;;;;;;;;9.70;99.40;;;;;;6276450;22;20393;-67
2023/02/22 02:45:44;;;;;;;103.83;70.17;;;9.70;99.40;;;;;;6275848;22;19899;-66
2023/02/22 02:48:12;;;;;;;109.67;69.43;;;9.70;99.40;;;;;;6276122;22;20346;-66
2023/02/22 02:50:48;;;;;;;101.97;66.57;;;9.60;99.40;;;;;;6276503;22;20010;-67
2023/02/22 02:53:20;;;;;;;111.40;71.60;;;9.60;99.40;;;;;;6276278;22;19999;-67
2023/02/22 02:55:47;;;;;;;100.60;67.53;;;9.50;99.40;;;;;;6276974;22;20078;-67
2023/02/22 02:58:21;;;;;;;100.30;66.83;;;9.50;99.50;;;;;;6276325;22;20004;-67
2023/02/22 03:00:51;;;;;;;109.40;70.60;;;9.50;99.50;;;;;;6276096;22;20000;-67
2023/02/22 03:03:51;;;;;;;106.80;69.50;;;9.50;99.40;;;;;;6276231;22;20007;-67
2023/02/22 03:06:50;;;;;;;108.07;67.00;;;9.40;99.40;;;;;;6248968;22;20393;-66
2023/02/22 03:09:34;;;;;;;114.03;73.83;;;9.40;99.40;;;;;;6239268;22;20426;-67
2023/02/22 03:12:21;;;;;;;109.03;69.80;;;9.40;99.50;;;;;;6275489;22;20004;-67
2023/02/22 03:15:08;;;;;;;112.67;72.60;;;9.30;99.50;;;;;;6275991;22;19999;-67
2023/02/22 03:17:35;;;;;;;109.40;71.93;;;9.30;99.50;;;;;;6276199;22;19999;-66
2023/02/22 03:20:18;;;;;;;109.93;71.50;;;9.30;99.50;;;;;;6276126;22;20027;-67
2023/02/22 03:22:57;;;;;;;114.60;73.00;;;9.30;99.50;;;;;;6275861;22;20016;-66
2023/02/22 03:25:32;;;;;;;113.23;71.10;;;9.30;99.50;;;;;;6275854;22;20003;-67
2023/02/22 03:28:06;;;;;;;111.50;71.93;;;9.20;99.50;;;;;;6276374;22;20090;-67
2023/02/22 03:30:40;;;;;;;109.83;72.97;;;9.30;99.60;;;;;;6275886;22;20422;-67
2023/02/22 03:33:12;;;;;;;113.17;74.23;;;9.20;99.50;;;;;;6275944;22;20000;-67
2023/02/22 03:35:47;;;;;;;116.20;72.07;;;9.20;99.50;;;;;;6275982;22;20432;-66
2023/02/22 03:38:17;;;;;;;110.37;73.27;;;9.20;99.50;;;;;;6275717;22;20000;-67
2023/02/22 03:40:48;;;;;;;111.37;73.10;;;9.20;99.50;;;;;;6275771;22;20000;-67
2023/02/22 03:43:19;;;;;;;106.07;69.83;;;9.10;99.50;;;;;;6276282;22;20062;-66
2023/02/22 03:45:47;;;;;;;110.23;70.60;;;9.10;99.50;;;;;;6276167;22;20011;-65
2023/02/22 03:48:35;;;;;;;107.00;70.70;;;9.00;99.40;;;;;;6276223;22;20295;-67
2023/02/22 03:51:03;;;;;;;106.80;71.63;;;9.00;99.40;;;;;;6275824;22;20004;-67
2023/02/22 03:53:31;;;;;;;104.80;69.83;;;9.00;99.40;;;;;;6276398;22;20064;-67
2023/02/22 03:55:59;;;;;;;108.17;70.00;;;9.00;99.40;;;;;;6275735;22;20077;-67
2023/02/22 03:58:30;;;;;;;107.83;71.13;;;8.90;99.40;;;;;;6275903;22;20004;-67
2023/02/22 04:00:56;;;;;;;109.60;70.70;;;8.90;99.40;;;;;;6276002;22;19996;-67
2023/02/22 04:03:22;;;;;;;109.73;71.27;;;8.90;99.30;;;;;;6275844;22;20014;-67
2023/02/22 04:05:48;;;;;;;111.27;73.33;;;8.90;99.20;;;;;;6275911;22;20003;-67
2023/02/22 04:08:15;;;;;;;111.97;70.73;;;8.80;99.20;;;;;;6275585;22;20011;-67
2023/02/22 04:10:41;;;;;;;111.47;72.53;;;8.80;99.20;;;;;;6275934;22;20027;-67
2023/02/22 04:13:09;;;;;;;114.40;74.80;;;8.80;99.20;;;;;;6276019;22;20014;-66
2023/02/22 04:15:35;;;;;;;115.57;72.47;;;8.80;99.30;;;;;;6275332;22;20006;-67
2023/02/22 04:18:00;;;;;;;109.43;72.20;;;8.80;99.20;;;;;;6275526;22;20038;-67
2023/02/22 04:20:26;;;;;;;110.60;72.90;;;8.70;99.20;;;;;;6275972;22;19995;-67
2023/02/22 04:22:53;;;;;;;108.73;68.53;;;8.70;99.10;;;;;;6276619;22;20446;-67
2023/02/22 04:25:21;;;;;;;99.00;66.13;;;8.70;99.10;;;;;;6277626;22;20000;-67
2023/02/22 04:27:47;;;;;;;101.53;65.50;;;8.70;98.90;;;;;;6277473;22;19999;-67
2023/02/22 04:30:18;;;;;;;103.67;71.13;;;8.60;98.70;;;;;;6277694;22;20418;-66
2023/02/22 04:32:44;;;;;;;102.20;68.53;;;8.50;98.70;;;;;;6277416;22;20057;-67
2023/02/22 04:35:10;;;;;;;102.33;68.67;;;8.60;99.10;;;;;;6277684;22;19996;-67
2023/02/22 04:37:36;;;;;;;103.43;67.10;;;8.50;98.80;;;;;;6277635;22;20004;-67
2023/02/22 04:40:06;;;;;;;99.03;65.97;;;8.50;98.80;;;;;;6277213;22;20000;-66
2023/02/22 04:42:33;;;;;;;101.60;65.17;;;8.50;98.80;;;;;;6277736;22;20019;-67
2023/02/22 04:44:59;;;;;;;106.50;67.97;;;8.40;98.70;;;;;;6277627;22;20079;-67
2023/02/22 04:47:25;;;;;;;103.40;67.10;;;8.40;98.70;;;;;;6277440;22;20097;-67
2023/02/22 04:49:51;;;;;;;107.87;69.73;;;8.40;98.70;;;;;;6277271;22;20000;-67
2023/02/22 04:52:17;;;;;;;103.30;67.00;;;8.40;98.70;;;;;;6277384;22;20026;-67
2023/02/22 04:54:43;;;;;;;103.07;66.90;;;8.40;98.80;;;;;;6277327;22;19996;-67
2023/02/22 04:57:08;;;;;;;102.10;68.37;;;8.40;98.70;;;;;;6277071;22;20016;-66
2023/02/22 04:59:34;;;;;;;109.77;69.70;;;8.30;98.60;;;;;;6277369;22;20006;-67
2023/02/22 05:02:00;;;;;;;107.77;69.20;;;8.30;98.80;;;;;;6277042;22;20418;-67
2023/02/22 05:04:26;;;;;;;107.73;67.60;;;8.20;98.50;;;;;;6277456;22;20011;-67
2023/02/22 05:06:52;;;;;;;115.00;68.90;;;8.20;98.50;;;;;;6277368;22;19996;-66
2023/02/22 05:09:18;;;;;;;110.40;69.13;;;8.20;98.60;;;;;;6277284;22;20011;-67
2023/02/22 05:11:44;;;;;;;103.90;65.63;;;8.10;98.60;;;;;;6276947;22;20303;-67
2023/02/22 05:14:10;;;;;;;101.43;68.37;;;8.10;98.70;;;;;;6277162;22;20049;-67
2023/02/22 05:16:36;;;;;;;108.00;68.77;;;8.10;98.80;;;;;;6277256;22;19996;-67
2023/02/22 05:19:01;;;;;;;96.27;62.57;;;8.10;98.80;;;;;;6277048;22;20004;-67
2023/02/22 05:21:27;;;;;;;95.27;61.63;;;8.10;98.80;;;;;;6276581;22;20312;-67
2023/02/22 05:23:53;;;;;;;110.90;68.63;;;8.10;98.70;;;;;;6276840;22;20008;-67
2023/02/22 05:26:19;;;;;;;110.07;68.07;;;8.10;98.70;;;;;;6276677;22;20006;-67
2023/02/22 05:28:44;;;;;;;101.73;65.47;;;8.10;98.70;;;;;;6276942;22;20010;-67
2023/02/22 05:31:10;;;;;;;105.47;64.33;;;8.10;98.60;;;;;;6277157;22;20003;-67
2023/02/22 05:33:38;;;;;;;97.13;62.33;;;8.10;98.60;;;;;;6276751;22;20003;-67
2023/02/22 05:36:06;;;;;;;89.77;58.27;;;8.10;98.50;;;;;;6276665;22;20025;-67
2023/02/22 05:38:33;;;;;;;118.10;60.07;;;8.00;98.40;;;;;;6276966;22;20003;-67
2023/02/22 05:41:00;;;;;;;110.20;60.07;;;8.00;98.10;;;;;;6277141;22;20019;-67
2023/02/22 05:43:25;;;;;;;108.17;60.13;;;7.90;98.10;;;;;;6276759;22;20512;-67
2023/02/22 05:45:51;;;;;;;101.20;62.77;;;7.90;98.10;;;;;;6276584;22;19996;-67
2023/02/22 05:48:17;;;;;;;114.20;65.57;;;7.90;98.10;;;;;;6276613;22;20007;-66
2023/02/22 05:50:43;;;;;;;104.90;65.27;;;7.90;98.20;;;;;;6276519;22;19999;-67
2023/02/22 05:53:09;;;;;;;104.43;63.67;;;7.80;98.20;;;;;;6276707;22;20004;-66
2023/02/22 05:55:34;;;;;;;103.23;63.17;;;7.90;98.30;;;;;;6276760;22;20002;-66
2023/02/22 05:58:00;;;;;;;101.93;63.87;;;7.80;98.20;;;;;;6276988;22;20008;-67
2023/02/22 06:00:30;;;;;;;99.30;61.57;;;7.80;98.20;;;;;;6276172;22;20007;-66
2023/02/22 06:02:57;;;;;;;103.40;62.90;;;7.80;98.10;;;;;;6276638;22;20405;-67
2023/02/22 06:05:23;;;;;;;116.47;65.23;;;7.80;98.10;;;;;;6276929;22;19996;-67
2023/02/22 06:07:49;;;;;;;127.63;62.67;;;7.80;98.10;;;;;;6276708;22;20061;-66
2023/02/22 06:10:15;;;;;;;158.23;65.13;;;7.70;98.10;;;;;;6276805;22;20008;-67
2023/02/22 06:12:41;;;;;;;137.83;69.03;;;7.70;98.20;;;;;;6276311;22;20008;-66
2023/02/22 06:15:07;;;;;;;143.27;63.80;;;7.80;98.10;;;;;;6276558;22;20063;-66
2023/02/22 06:17:33;;;;;;;126.50;64.90;;;7.70;97.90;;;;;;6276133;22;20000;-67
2023/02/22 06:19:58;;;;;;;96.67;58.27;;;7.70;97.90;;;;;;6276778;22;20003;-67
2023/02/22 06:22:24;;;;;;;113.27;66.53;;;7.70;97.80;;;;;;6276168;22;20508;-67
2023/02/22 06:24:50;;;;;;;101.10;62.07;;;7.70;97.90;;;;;;6276355;22;20089;-67
2023/02/22 06:27:15;;;;;;;98.60;60.13;;;7.70;98.00;;;;;;6275913;22;20002;-66
2023/02/22 06:29:45;;;;;;;98.33;59.77;;;7.70;98.20;;;;;;6276571;22;20010;-68
2023/02/22 06:32:12;;;;;;;105.83;60.97;;;7.70;98.00;;;;;;6276361;22;20000;-67
2023/02/22 06:34:39;;;;;;;97.80;59.17;;;7.60;98.00;;;;;;6276175;22;20426;-67
2023/02/22 06:37:06;;;;;;;96.30;60.10;;;7.60;97.90;;;;;;6276459;22;20326;-67
2023/02/22 06:39:32;;;;;;;99.13;61.23;;;7.60;97.90;;;;;;6276334;22;20003;-66
2023/02/22 06:41:59;;;;;;;95.33;58.20;;;7.60;98.00;;;;;;6276133;22;20433;-66
2023/02/22 06:44:25;;;;;;;92.60;57.00;;;7.60;98.00;;;;;;6275188;22;20007;-67
2023/02/22 06:46:51;;;;;;;91.80;57.57;;;7.60;98.00;;;;;;6276321;22;20063;-67
2023/02/22 06:49:18;;;;;;;95.13;57.93;;;7.60;98.00;;;;;;6276006;22;20000;-66
2023/02/22 06:51:45;;;;;;;85.67;53.17;;;7.50;98.00;;;;;;6275943;22;20053;-67
2023/02/22 06:54:11;;;;;;;94.23;53.70;;;7.50;98.10;;;;;;6276231;22;20315;-67
2023/02/22 06:56:37;;;;;;;84.03;53.27;;;7.60;98.30;;;;;;6276139;22;20415;-71
2023/02/22 06:59:03;;;;;;;78.43;51.00;;;7.50;98.30;;;;;;6276130;22;20004;-64
2023/02/22 07:01:29;;;;;;;83.40;50.23;;;7.60;98.40;;;;;;6248538;22;20061;-66
2023/02/22 07:03:55;;;;;;;91.37;53.70;;;7.60;98.40;;;;;;6275723;22;20011;-67
2023/02/22 07:06:21;;;;;;;106.17;52.77;;;7.60;98.50;;;;;;6275965;22;20187;-67
2023/02/22 07:08:48;;;;;;;82.70;50.77;;;7.60;98.60;;;;;;6275907;22;20075;-67
2023/02/22 07:11:15;;;;;;;86.60;54.33;;;7.60;98.60;;;;;;6275706;22;20000;-66
2023/02/22 07:13:41;;;;;;;88.77;53.87;;;7.70;98.60;;;;;;6275626;22;20042;-68
2023/02/22 07:16:07;;;;;;;90.23;55.33;;;7.70;98.70;;;;;;6275662;22;19999;-68
2023/02/22 07:18:33;;;;;;;96.40;58.67;;;7.70;98.80;;;;;;6275991;22;20004;-67
2023/02/22 07:20:58;;;;;;;85.37;57.27;;;7.70;98.90;;;;;;6275870;22;20003;-68
2023/02/22 07:23:26;;;;;;;92.27;58.63;;;7.80;99.20;;;;;;6275629;22;20462;-69
2023/02/22 07:25:51;;;;;;;97.17;57.23;;;7.80;99.00;;;;;;6275661;22;20003;-66
2023/02/22 07:28:17;;;;;;;92.87;57.77;;;7.80;99.00;;;;;;6275750;22;20000;-66
2023/02/22 07:30:43;;;;;;;104.43;57.40;;;7.80;99.10;;;;;;6275759;22;20000;-67
2023/02/22 07:33:11;;;;;;;96.13;59.77;;;7.90;99.20;;;;;;6275635;22;20449;-66
2023/02/22 07:35:42;;;;;;;99.47;57.90;;;8.00;99.30;;;;;;6275613;22;20004;-67
2023/02/22 07:38:08;;;;;;;94.03;58.80;;;8.00;99.30;;;;;;6275638;22;20436;-66
2023/02/22 07:40:36;;;;;;;96.27;58.33;;;8.00;99.40;;;;;;6276100;22;20004;-67
2023/02/22 07:43:19;;;;;;;98.30;55.40;;;8.00;99.40;;;;;;6276003;22;20023;-67
2023/02/22 07:45:45;;;;;;;;;;;8.10;99.50;;;;;;6248975;22;19999;-66
2023/02/22 07:48:12;;;;;;;105.70;57.70;;;8.10;99.50;;;;;;6275985;22;19904;-66
2023/02/22 07:50:38;;;;;;;103.07;57.90;;;8.10;99.50;;;;;;6275743;22;20058;-66
2023/02/22 07:53:06;;;;;;;104.80;60.63;;;8.20;99.50;;;;;;6274998;22;20375;-67
2023/02/22 07:55:33;;;;;;;97.50;60.13;;;8.20;99.50;;;;;;6275835;22;20000;-67
2023/02/22 07:58:02;;;;;;;100.33;62.00;;;8.30;99.50;;;;;;6277706;22;20071;-67
2023/02/22 08:00:33;;;;;;;101.60;65.13;;;8.30;99.50;;;;;;6277519;22;20027;-67
2023/02/22 08:03:00;;;;;;;99.93;64.63;;;8.40;99.50;;;;;;6277117;22;20508;-67
2023/02/22 08:05:28;;;;;;;106.90;64.93;;;8.40;99.50;;;;;;6277106;22;20414;-68
2023/02/22 08:07:54;;;;;;;107.90;62.90;;;8.40;99.50;;;;;;6277231;22;20007;-67
2023/02/22 08:10:22;;;;;;;105.63;64.97;;;8.50;99.50;;;;;;6277278;22;19996;-66
2023/02/22 08:12:48;;;;;;;106.90;63.10;;;8.50;99.50;;;;;;6277502;22;19996;-66
2023/02/22 08:15:35;;;;;;;104.03;64.73;;;8.60;99.40;;;;;;6277505;22;20004;-66
2023/02/22 08:18:04;;;;;;;106.40;64.77;;;8.70;99.40;;;;;;6278447;22;20004;-67
2023/02/22 08:20:30;;;;;;;100.53;64.53;;;8.70;99.40;;;;;;6277676;22;20011;-66
2023/02/22 08:22:57;;;;;;;104.47;60.97;;;8.80;99.40;;;;;;6277290;22;20405;-66
2023/02/22 08:25:26;;;;;;;102.80;65.23;;;8.90;99.40;;;;;;6277384;22;20030;-67
2023/02/22 08:27:57;;;;;;;99.97;60.60;;;9.00;99.40;;;;;;6277507;22;20011;-66
2023/02/22 08:30:24;;;;;;;97.73;61.63;;;9.00;99.30;;;;;;6277575;22;20007;-66
2023/02/22 08:32:50;;;;;;;97.47;60.73;;;9.10;99.30;;;;;;6277044;22;20045;-66
2023/02/22 08:35:18;;;;;;;103.20;62.30;;;9.20;99.20;;;;;;6277308;22;20099;-66
2023/02/22 08:37:49;;;;;;;104.20;62.40;;;9.20;99.10;;;;;;6277608;22;20053;-67
2023/02/22 08:40:18;;;;;;;101.53;61.30;;;9.30;98.90;;;;;;6277466;22;20000;-67
2023/02/22 08:42:44;;;;;;;100.93;62.57;;;9.40;98.80;;;;;;6276884;22;20004;-68
2023/02/22 08:45:12;;;;;;;100.67;62.17;;;9.40;98.80;;;;;;6277282;22;20011;-67
2023/02/22 08:47:38;;;;;;;103.73;65.30;;;9.50;98.60;;;;;;6276942;22;20007;-68
2023/02/22 08:50:04;;;;;;;94.70;59.23;;;9.50;98.50;;;;;;6277530;22;20004;-67
2023/02/22 08:52:30;;;;;;;104.40;60.50;;;9.60;98.50;;;;;;6277291;22;19996;-67
2023/02/22 08:54:56;;;;;;;95.90;59.43;;;9.70;98.20;;;;;;6277392;22;20000;-67
2023/02/22 08:57:22;;;;;;;89.10;59.13;;;9.70;98.20;;;;;;6277326;22;20079;-66
2023/02/22 08:59:47;;;;;;;96.77;59.13;;;9.80;98.10;;;;;;6277240;22;20003;-66
2023/02/22 09:02:19;;;;;;;90.97;56.30;;;9.90;98.00;;;;;;6277187;22;20003;-67
2023/02/22 09:04:45;;;;;;;92.50;56.17;;;9.90;98.00;;;;;;6277142;22;20008;-67
2023/02/22 09:07:11;;;;;;;91.87;56.07;;;10.00;97.90;;;;;;6277256;22;20004;-68
2023/02/22 09:09:37;;;;;;;95.07;55.13;;;10.00;97.70;;;;;;6277228;22;20057;-67
2023/02/22 09:12:03;;;;;;;88.53;53.67;;;10.10;97.60;;;;;;6277050;22;19999;-66
2023/02/22 09:14:29;;;;;;;84.27;54.60;;;10.20;97.40;;;;;;6277237;22;20000;-66
2023/02/22 09:16:54;;;;;;;81.80;53.20;;;10.20;97.20;;;;;;6276584;22;20069;-67
2023/02/22 09:19:20;;;;;;;86.15;52.88;;;10.30;97.10;;;;;;6277207;22;20053;-67
2023/02/22 09:21:52;;;;;;;82.00;52.35;;;10.40;97.00;;;;;;6277351;22;20073;-67
2023/02/22 09:24:19;;;;;;;85.75;51.10;;;10.50;96.80;;;;;;6277090;22;20015;-66
2023/02/22 09:26:52;;;;;;;89.43;52.07;;;10.50;96.60;;;;;;6276761;22;20006;-66
2023/02/22 09:29:21;;;;;;;83.40;50.35;;;10.60;96.40;;;;;;6277146;22;20026;-67
2023/02/22 09:31:48;;;;;;;84.72;49.80;;;10.60;96.20;;;;;;6277088;22;20004;-67
2023/02/22 09:34:15;;;;;;;81.05;49.03;;;10.60;96.00;;;;;;6276855;22;20004;-67
2023/02/22 09:36:42;;;;;;;81.43;49.67;;;10.70;95.90;;;;;;6276710;22;20030;-69
2023/02/22 09:39:10;;;;;;;79.97;48.88;;;10.80;95.90;;;;;;6276497;22;20034;-72
2023/02/22 09:42:20;;;;;;;82.07;48.97;;;10.80;95.70;;;;;;6276725;22;20406;-70
2023/02/22 09:44:48;;;;;;;79.47;47.13;;;10.80;95.60;;;;;;6276699;22;20472;-70
2023/02/22 09:47:37;;;;;;;76.07;48.13;;;10.90;95.50;;;;;;6277036;22;20061;-69
2023/02/22 09:50:23;;;;;;;77.13;46.47;;;10.90;95.50;;;;;;6277061;22;20330;-68
2023/02/22 09:52:58;;;;;;;80.47;48.70;;;11.00;95.50;;;;;;6276523;22;20031;-67
2023/02/22 09:55:46;;;;;;;81.80;48.97;;;11.00;95.40;;;;;;6276679;22;19996;-68
2023/02/22 09:58:27;;;;;;;84.32;47.60;;;11.10;95.30;;;;;;6276953;22;20011;-68
2023/02/22 10:01:13;;;;;;;76.45;47.10;;;11.20;95.20;;;;;;6276815;22;20004;-69
2023/02/22 10:04:00;;;;;;;80.95;46.13;;;11.30;95.00;;;;;;6276734;22;20008;-68
2023/02/22 10:06:28;;;;;;;77.45;47.97;;;11.40;94.60;;;;;;6276832;22;20000;-68
2023/02/22 10:08:58;;;;;;;71.07;45.42;;;11.50;94.40;;;;;;6276596;22;20422;-68
2023/02/22 10:11:43;;;;;;;74.38;46.10;;;11.50;94.10;;;;;;6276952;22;20007;-68
2023/02/22 10:14:41;;;;;;;79.13;47.20;;;11.60;94.00;;;;;;6276051;22;19995;-68
2023/02/22 10:17:28;;;;;;;71.60;46.42;;;11.80;94.00;;;;;;6276463;22;20334;-68
2023/02/22 10:20:05;;;;;;;71.78;45.47;;;11.90;93.80;;;;;;6275506;22;19995;-68
2023/02/22 10:22:55;;;;;;;68.72;44.50;;;12.00;93.40;;;;;;6275834;22;20042;-68
2023/02/22 10:25:26;;;;;;;74.30;45.75;;;12.10;93.10;;;;;;6276200;22;20012;-68
2023/02/22 10:28:02;;;;;;;145.68;50.50;;;12.20;92.60;;;;;;6276524;22;19996;-68
2023/02/22 10:30:55;;;;;;;79.35;47.47;;;12.30;91.90;;;;;;6249260;22;20003;-68
2023/02/22 10:33:25;;;;;;;73.70;43.22;;;12.30;91.60;;;;;;6264335;22;20004;-68
2023/02/22 10:35:52;;;;;;;74.15;43.85;;;12.40;91.60;;;;;;6276141;22;20330;-68
2023/02/22 10:38:28;;;;;;;67.85;42.83;;;12.50;91.00;;;;;;6276342;22;19995;-68
2023/02/22 10:41:09;;;;;;;77.18;43.42;;;12.60;91.10;;;;;;6276082;22;20007;-69
2023/02/22 10:43:39;;;;;;;66.15;42.15;;;12.60;91.00;;;;;;6275843;22;20449;-68
2023/02/22 10:46:08;;;;;;;69.03;41.97;;;12.70;90.90;;;;;;6276447;22;20362;-69
2023/02/22 10:48:37;;;;;;;71.78;44.00;;;12.70;90.60;;;;;;6276211;22;20004;-68
2023/02/22 10:51:07;;;;;;;70.72;43.38;;;12.70;90.00;;;;;;6275840;22;20004;-69
2023/02/22 10:53:36;;;;;;;67.68;42.45;;;12.70;89.90;;;;;;6276479;22;20030;-68
2023/02/22 10:56:20;;;;;;;66.43;41.75;;;12.80;90.00;;;;;;6275848;22;20004;-70
2023/02/22 10:59:01;;;;;;;63.17;41.33;;;12.80;89.80;;;;;;6275927;22;19996;-70
2023/02/22 11:01:29;;;;;;;67.03;41.97;;;12.80;89.60;;;;;;6275903;22;20376;-70
2023/02/22 11:04:04;;;;;;;65.13;41.03;;;12.90;89.40;;;;;;6276109;22;20039;-70
2023/02/22 11:06:32;;;;;;;64.70;41.83;;;12.90;89.00;;;;;;6276056;22;20003;-68
2023/02/22 11:09:11;;;;;;;67.55;40.10;;;13.00;88.90;;;;;;6275932;22;20087;-69
2023/02/22 11:11:40;;;;;;;70.07;42.70;;;13.00;88.20;;;;;;6248997;22;20004;-69
2023/02/22 11:14:09;;;;;;;68.25;42.38;;;13.00;87.70;;;;;;6275961;22;20081;-68
2023/02/22 11:16:51;;;;;;;67.63;42.10;;;13.00;87.80;;;;;;6276122;22;20045;-69
2023/02/22 11:19:24;;;;;;;64.45;40.53;;;13.10;88.20;;;;;;6276102;22;20004;-69
2023/02/22 11:21:54;;;;;;;76.40;43.15;;;13.20;86.90;;;;;;6275789;22;20019;-68
2023/02/22 11:24:23;;;;;;;67.90;39.88;;;13.20;84.80;;;;;;6275588;22;20095;-68
2023/02/22 11:27:00;;;;;;;63.30;39.67;;;13.30;84.90;;;;;;6276091;22;20000;-68
2023/02/22 11:29:35;;;;;;;62.38;39.38;;;13.30;85.20;;;;;;6275680;22;20014;-69
2023/02/22 11:32:12;;;;;;;62.10;39.00;;;13.30;85.20;;;;;;6276971;22;19995;-67
2023/02/22 11:34:41;;;;;;;62.17;40.30;;;13.40;85.00;;;;;;6278218;22;20007;-68
2023/02/22 11:37:29;;;;;;;67.97;41.13;;;13.40;84.80;;;;;;6277748;22;20000;-69
2023/02/22 11:40:21;;;;;;;65.50;40.50;;;13.50;84.70;;;;;;6277964;22;20427;-69
2023/02/22 11:43:17;;;;;;;57.08;37.63;;;13.60;84.70;;;;;;6277315;22;20012;-68
2023/02/22 11:46:19;;;;;;;60.88;38.78;;;13.60;83.80;;;;;;6257368;22;20311;-68
2023/02/22 11:49:08;;;;;;;60.75;37.88;;;13.60;82.40;;;;;;6229403;22;20418;-69
2023/02/22 11:52:06;;;;;;;57.05;36.75;;;13.70;83.20;;;;;;6275864;22;20486;-68
2023/02/22 11:54:43;;;;;;;63.50;39.47;;;13.80;83.60;;;;;;6277220;22;20079;-68
2023/02/22 11:57:15;;;;;;;60.30;39.15;;;14.00;83.40;;;;;;6277767;22;20022;-69
2023/02/22 12:00:07;;;;;;;63.35;41.15;;;14.10;82.90;;;;;;6277510;22;20488;-68
2023/02/22 12:02:58;;;;;;;64.00;41.80;;;14.10;81.40;;;;;;6277203;22;20027;-69
2023/02/22 12:05:39;;;;;;;66.15;41.90;;;14.20;81.60;;;;;;6231938;22;20083;-68
2023/02/22 12:08:13;;;;;;;67.65;40.47;;;14.30;81.00;;;;;;6276900;22;20004;-68
2023/02/22 12:10:39;;;;;;;66.18;38.10;;;14.30;80.60;;;;;;6276889;22;20010;-68
2023/02/22 12:13:26;;;;;;;64.35;37.72;;;14.40;80.00;;;;;;6276831;22;20027;-69
2023/02/22 12:16:20;;;;;;;72.13;40.78;;;14.40;79.00;;;;;;6277109;22;20006;-68
2023/02/22 12:18:58;;;;;;;63.80;38.97;;;14.50;78.80;;;;;;6276666;22;19999;-68
2023/02/22 12:21:28;;;;;;;62.10;39.20;;;14.60;77.00;;;;;;6276821;22;20039;-68
2023/02/22 12:24:13;;;;;;;60.95;38.03;;;14.60;77.50;;;;;;6277268;22;20038;-67
2023/02/22 12:26:47;;;;;;;59.22;37.05;;;14.70;77.50;;;;;;6276633;22;20003;-68
2023/02/22 12:29:43;;;;;;;63.10;38.90;;;14.80;77.10;;;;;;6276184;22;20003;-68
2023/02/22 12:32:14;;;;;;;65.93;41.13;;;14.80;77.60;;;;;;6277629;22;20007;-68
2023/02/22 12:34:55;;;;;;;57.20;39.33;;;14.90;76.30;;;;;;6277398;22;19996;-68
2023/02/22 12:37:52;;;;;;;59.75;39.38;;;14.90;76.10;;;;;;6277467;22;20453;-69
2023/02/22 12:40:30;;;;;;;61.47;38.53;;;15.00;75.80;;;;;;6251362;22;20075;-68
2023/02/22 12:43:15;;;;;;;57.55;38.20;;;15.00;76.20;;;;;;6273969;22;20034;-68
2023/02/22 12:46:11;;;;;;;148.25;44.40;;;15.10;76.20;;;;;;6276191;22;20007;-69
2023/02/22 12:48:46;;;;;;;60.88;38.45;;;15.10;75.70;;;;;;6277004;22;20046;-68
2023/02/22 12:51:38;;;;;;;61.78;38.85;;;15.10;75.60;;;;;;6249794;22;20004;-72